createdAt,value
2022-09-23T00:00:35.223Z,101865.13
2022-09-23T00:03:01.812Z,101870.31
2022-09-23T00:05:29.813Z,101876.44
2022-09-23T00:07:57.283Z,101864.47
2022-09-23T00:10:25.158Z,101866.66
2022-09-23T00:12:51.722Z,101864.28
2022-09-23T00:15:18.458Z,101869.28
2022-09-23T00:17:45.262Z,101876.41
2022-09-23T00:20:12.176Z,101872.69
2022-09-23T00:22:39.051Z,101881.81
2022-09-23T00:25:07.018Z,101884.78
2022-09-23T00:27:33.991Z,101881.09
2022-09-23T00:30:01.151Z,101876.66
2022-09-23T00:32:28.013Z,101880.50
2022-09-23T00:34:54.492Z,101881.50
2022-09-23T00:37:21.446Z,101884.47
2022-09-23T00:39:47.977Z,101881.16
2022-09-23T00:42:20.837Z,101881.44
2022-09-23T00:44:48.960Z,101886.41
2022-09-23T00:47:21.407Z,101886.41
2022-09-23T00:49:54.478Z,101881.72
2022-09-23T00:52:23.660Z,101881.72
2022-09-23T00:54:53.389Z,101877.28
2022-09-23T00:57:20.185Z,101877.41
2022-09-23T00:59:48.576Z,101870.31
2022-09-23T01:02:15.584Z,101870.31
2022-09-23T01:04:42.850Z,101870.56
2022-09-23T01:07:09.373Z,101873.66
2022-09-23T01:09:36.379Z,101869.38
2022-09-23T01:12:22.657Z,101860.25
2022-09-23T01:15:14.440Z,101863.97
2022-09-23T01:18:08.024Z,101854.41
2022-09-23T01:20:34.565Z,101850.69
2022-09-23T01:23:12.792Z,101853.16
2022-09-23T01:25:42.248Z,101850.56
2022-09-23T01:28:14.729Z,101845.16
2022-09-23T01:31:02.841Z,101845.16
2022-09-23T01:33:41.246Z,101838.31
2022-09-23T01:36:10.400Z,101836.72
2022-09-23T01:38:42.984Z,101839.56
2022-09-23T01:41:13.261Z,101843.16
2022-09-23T01:43:58.526Z,101837.75
2022-09-23T01:46:51.278Z,101834.31
2022-09-23T01:49:30.002Z,101831.97
2022-09-23T01:52:06.036Z,101832.66
2022-09-23T01:54:39.033Z,101829.63
2022-09-23T01:57:11.576Z,101832.69
2022-09-23T01:59:40.257Z,101836.81
2022-09-23T02:02:32.927Z,101834.63
2022-09-23T02:05:08.014Z,101831.44
2022-09-23T02:07:52.612Z,101827.16
2022-09-23T02:10:25.498Z,101823.59
2022-09-23T02:12:57.334Z,101829.09
2022-09-23T02:15:28.759Z,101824.53
2022-09-23T02:18:00.037Z,101822.59
2022-09-23T02:20:30.599Z,101828.25
2022-09-23T02:23:03.624Z,101819.13
2022-09-23T02:25:35.551Z,101827.25
2022-09-23T02:28:29.128Z,101827.16
2022-09-23T02:31:11.865Z,101823.47
2022-09-23T02:33:43.896Z,101831.59
2022-09-23T02:36:15.342Z,101825.41
2022-09-23T02:38:51.195Z,101815.69
2022-09-23T02:41:20.799Z,101820.38
2022-09-23T02:43:59.601Z,101824.94
2022-09-23T02:46:26.825Z,101824.09
2022-09-23T02:49:04.591Z,101819.81
2022-09-23T02:51:35.130Z,101811.81
2022-09-23T02:54:03.552Z,101817.94
2022-09-23T02:56:30.076Z,101823.97
2022-09-23T02:58:57.038Z,101818.69
2022-09-23T03:01:49.220Z,101815.25
2022-09-23T03:04:50.417Z,101810.81
2022-09-23T03:07:22.393Z,101815.84
2022-09-23T03:10:07.950Z,101816.81
2022-09-23T03:12:42.262Z,101812.28
2022-09-23T03:15:30.130Z,101806.88
2022-09-23T03:18:15.986Z,101806.03
2022-09-23T03:20:50.430Z,101801.00
2022-09-23T03:23:21.487Z,101803.72
2022-09-23T03:25:49.891Z,101805.41
2022-09-23T03:28:17.623Z,101804.69
2022-09-23T03:30:44.648Z,101807.38
2022-09-23T03:33:13.360Z,101803.72
2022-09-23T03:36:07.113Z,101813.28
2022-09-23T03:38:39.118Z,101807.38
2022-09-23T03:41:06.044Z,101797.47
2022-09-23T03:43:38.012Z,101800.91
2022-09-23T03:46:07.293Z,101802.72
2022-09-23T03:48:34.018Z,101791.91
2022-09-23T03:51:09.045Z,101798.03
2022-09-23T03:53:35.731Z,101801.75
2022-09-23T03:56:02.337Z,101795.59
2022-09-23T03:58:28.798Z,101798.44
2022-09-23T04:00:55.581Z,101799.28
2022-09-23T04:03:22.734Z,101794.50
2022-09-23T04:05:49.415Z,101793.38
2022-09-23T04:08:15.950Z,101793.97
2022-09-23T04:10:42.574Z,101785.88
2022-09-23T04:13:12.253Z,101789.69
2022-09-23T04:15:40.716Z,101787.00
2022-09-23T04:18:07.466Z,101793.25
2022-09-23T04:20:34.010Z,101796.78
2022-09-23T04:23:00.499Z,101792.50
2022-09-23T04:25:27.232Z,101793.50
2022-09-23T04:27:53.839Z,101789.22
2022-09-23T04:30:20.471Z,101795.84
2022-09-23T04:32:47.007Z,101795.84
2022-09-23T04:35:13.563Z,101798.44
2022-09-23T04:37:40.098Z,101801.97
2022-09-23T04:40:08.119Z,101805.56
2022-09-23T04:42:34.842Z,101797.59
2022-09-23T04:45:01.607Z,101808.63
2022-09-23T04:47:29.278Z,101811.34
2022-09-23T04:49:59.707Z,101809.50
2022-09-23T04:52:27.207Z,101804.84
2022-09-23T04:54:53.705Z,101806.94
2022-09-23T04:57:20.170Z,101809.63
2022-09-23T04:59:47.314Z,101809.63
2022-09-23T05:02:14.842Z,101811.47
2022-09-23T05:04:41.754Z,101814.03
2022-09-23T05:07:08.228Z,101813.19
2022-09-23T05:09:34.842Z,101810.59
2022-09-23T05:12:02.145Z,101807.19
2022-09-23T05:14:28.716Z,101811.25
2022-09-23T05:16:55.205Z,101811.91
2022-09-23T05:19:23.035Z,101814.59
2022-09-23T05:21:49.681Z,101813.34
2022-09-23T05:24:16.751Z,101815.53
2022-09-23T05:26:43.489Z,101818.59
2022-09-23T05:29:10.058Z,101810.25
2022-09-23T05:31:36.941Z,101818.47
2022-09-23T05:34:05.242Z,101808.38
2022-09-23T05:36:37.946Z,101811.09
2022-09-23T05:39:06.030Z,101823.59
2022-09-23T05:41:33.843Z,101810.56
2022-09-23T05:44:00.522Z,101813.72
2022-09-23T05:46:29.512Z,101814.97
2022-09-23T05:49:01.822Z,101812.00
2022-09-23T05:51:31.174Z,101810.88
2022-09-23T05:53:58.910Z,101813.94
2022-09-23T05:56:27.703Z,101811.97
2022-09-23T05:58:55.900Z,101814.38
2022-09-23T06:01:25.466Z,101823.94
2022-09-23T06:03:52.850Z,101819.13
2022-09-23T06:06:21.556Z,101819.00
2022-09-23T06:08:48.250Z,101819.13
2022-09-23T06:11:15.094Z,101820.72
2022-09-23T06:13:41.867Z,101815.03
2022-09-23T06:16:14.188Z,101819.91
2022-09-23T06:18:42.207Z,101813.97
2022-09-23T06:21:10.625Z,101814.16
2022-09-23T06:23:39.886Z,101814.63
2022-09-23T06:26:10.675Z,101817.66
2022-09-23T06:28:38.906Z,101813.81
2022-09-23T06:31:13.304Z,101820.53
2022-09-23T06:33:40.689Z,101814.72
2022-09-23T06:36:07.792Z,101814.31
2022-09-23T06:38:34.941Z,101821.16
2022-09-23T06:41:04.528Z,101820.75
2022-09-23T06:43:31.259Z,101814.78
2022-09-23T06:46:00.030Z,101815.56
2022-09-23T06:48:29.119Z,101809.72
2022-09-23T06:50:59.944Z,101820.16
2022-09-23T06:53:26.425Z,101818.16
2022-09-23T06:56:11.516Z,101817.59
2022-09-23T06:58:39.030Z,101821.47
2022-09-23T07:01:08.739Z,101817.94
2022-09-23T07:03:36.173Z,101814.41
2022-09-23T07:06:03.491Z,101820.97
2022-09-23T07:08:30.752Z,101816.56
2022-09-23T07:10:59.035Z,101828.56
2022-09-23T07:13:26.065Z,101822.41
2022-09-23T07:15:54.420Z,101828.09
2022-09-23T07:18:23.905Z,101825.84
2022-09-23T07:20:50.593Z,101829.13
2022-09-23T07:23:20.061Z,101826.88
2022-09-23T07:25:50.293Z,101828.88
2022-09-23T07:28:17.391Z,101833.16
2022-09-23T07:30:56.654Z,101837.16
2022-09-23T07:33:33.035Z,101842.72
2022-09-23T07:36:13.416Z,101841.97
2022-09-23T07:38:44.932Z,101844.81
2022-09-23T07:41:14.231Z,101841.41
2022-09-23T07:43:40.825Z,101847.09
2022-09-23T07:46:10.986Z,101834.34
2022-09-23T07:48:38.279Z,101847.03
2022-09-23T07:51:09.628Z,101839.84
2022-09-23T07:53:36.857Z,101844.69
2022-09-23T07:56:07.419Z,101842.97
2022-09-23T07:58:35.196Z,101843.66
2022-09-23T08:01:05.503Z,101843.44
2022-09-23T08:03:32.398Z,101840.00
2022-09-23T08:06:13.069Z,101845.06
2022-09-23T08:08:43.645Z,101842.44
2022-09-23T08:11:12.439Z,101845.97
2022-09-23T08:13:39.204Z,101848.31
2022-09-23T08:16:06.811Z,101846.78
2022-09-23T08:18:33.618Z,101845.53
2022-09-23T08:21:00.181Z,101853.84
2022-09-23T08:23:27.721Z,101854.28
2022-09-23T08:25:59.892Z,101855.06
2022-09-23T08:28:26.615Z,101857.16
2022-09-23T08:30:53.162Z,101864.00
2022-09-23T08:33:23.403Z,101870.66
2022-09-23T08:35:50.932Z,101872.91
2022-09-23T08:38:17.569Z,101873.00
2022-09-23T08:40:48.807Z,101873.41
2022-09-23T08:43:27.521Z,101878.75
2022-09-23T08:45:55.860Z,101880.69
2022-09-23T08:48:46.384Z,101871.53
2022-09-23T08:51:15.954Z,101869.56
2022-09-23T08:53:42.963Z,101874.19
2022-09-23T08:56:18.200Z,101868.75
2022-09-23T08:59:17.038Z,101871.00
2022-09-23T09:01:52.598Z,101870.31
2022-09-23T09:04:40.629Z,101862.66
2022-09-23T09:07:31.804Z,101866.63
2022-09-23T09:10:15.969Z,101858.47
2022-09-23T09:13:04.152Z,101860.53
2022-09-23T09:15:31.006Z,101852.38
2022-09-23T09:18:01.380Z,101855.13
2022-09-23T09:21:09.453Z,101852.06
2022-09-23T09:23:43.082Z,101857.00
2022-09-23T09:33:27.585Z,101849.53
2022-09-23T09:36:09.077Z,101849.69
2022-09-23T09:38:36.382Z,101850.38
2022-09-23T09:41:21.498Z,101854.16
2022-09-23T09:43:57.600Z,101855.53
2022-09-23T09:46:24.470Z,101851.59
2022-09-23T09:48:54.762Z,101848.50
2022-09-23T09:51:27.656Z,101849.06
2022-09-23T09:53:56.065Z,101859.28
2022-09-23T09:56:31.042Z,101849.59
2022-09-23T09:59:25.123Z,101853.84
2022-09-23T10:02:31.774Z,101848.38
2022-09-23T10:05:01.014Z,101850.59
2022-09-23T10:07:34.434Z,101850.94
2022-09-23T10:10:33.944Z,101838.81
2022-09-23T10:13:15.096Z,101841.56
2022-09-23T10:15:45.005Z,101835.94
2022-09-23T10:18:19.837Z,101829.94
2022-09-23T10:20:46.765Z,101822.91
2022-09-23T10:23:23.003Z,101823.09
2022-09-23T10:26:03.563Z,101820.69
2022-09-23T10:28:41.969Z,101822.22
2022-09-23T10:31:15.679Z,101817.25
2022-09-23T10:33:50.925Z,101809.38
2022-09-23T10:36:18.593Z,101810.94
2022-09-23T10:38:49.052Z,101816.19
2022-09-23T10:42:08.765Z,101808.00
2022-09-23T10:45:22.746Z,101803.88
2022-09-23T10:48:16.631Z,101810.56
2022-09-23T10:50:49.774Z,101807.31
2022-09-23T10:53:36.473Z,101809.34
2022-09-23T10:56:42.668Z,101803.72
2022-09-23T10:59:29.208Z,101807.31
2022-09-23T11:02:18.993Z,101800.63
2022-09-23T11:05:16.682Z,101803.34
2022-09-23T11:08:12.511Z,101796.19
2022-09-23T11:10:57.619Z,101795.16
2022-09-23T11:13:43.762Z,101797.56
2022-09-23T11:16:55.531Z,101798.22
2022-09-23T11:19:33.101Z,101789.69
2022-09-23T11:22:32.220Z,101787.50
2022-09-23T11:25:11.964Z,101790.59
2022-09-23T11:28:09.947Z,101784.97
2022-09-23T11:30:59.769Z,101787.53
2022-09-23T11:33:59.392Z,101781.94
2022-09-23T11:36:42.347Z,101784.69
2022-09-23T11:39:50.665Z,101777.03
2022-09-23T11:42:27.808Z,101777.38
2022-09-23T11:45:17.213Z,101786.94
2022-09-23T11:47:50.104Z,101778.09
2022-09-23T11:50:32.093Z,101773.47
2022-09-23T11:53:29.712Z,101768.84
2022-09-23T11:56:03.518Z,101768.84
2022-09-23T11:58:44.065Z,101765.41
2022-09-23T12:01:45.535Z,101766.22
2022-09-23T12:04:23.775Z,101765.19
2022-09-23T12:07:02.433Z,101756.44
2022-09-23T12:09:57.746Z,101766.00
2022-09-23T12:12:50.630Z,101761.53
2022-09-23T12:15:21.971Z,101760.88
2022-09-23T12:18:38.480Z,101756.56
2022-09-23T12:21:48.678Z,101758.59
2022-09-23T12:24:20.800Z,101756.38
2022-09-23T12:26:57.832Z,101747.50
2022-09-23T12:31:58.145Z,101740.53
2022-09-23T12:34:30.242Z,101747.72
2022-09-23T12:37:04.774Z,101735.94
2022-09-23T12:39:36.225Z,101739.69
2022-09-23T12:42:15.088Z,101746.91
2022-09-23T12:44:44.401Z,101730.53
2022-09-23T12:47:25.720Z,101737.50
2022-09-23T12:49:54.159Z,101732.88
2022-09-23T12:52:21.174Z,101731.19
2022-09-23T12:54:50.101Z,101728.28
2022-09-23T12:57:35.032Z,101724.34
2022-09-23T13:00:14.022Z,101721.59
2022-09-23T13:02:44.170Z,101717.53
2022-09-23T13:05:37.942Z,101709.19
2022-09-23T13:08:17.622Z,101712.63
2022-09-23T13:10:56.158Z,101711.81
2022-09-23T13:13:23.089Z,101703.66
2022-09-23T13:15:50.179Z,101698.53
2022-09-23T13:18:20.333Z,101696.34
2022-09-23T13:20:49.744Z,101686.13
2022-09-23T13:23:30.668Z,101693.34
2022-09-23T13:26:00.136Z,101692.16
2022-09-23T13:28:58.944Z,101692.69
2022-09-23T13:31:26.136Z,101687.09
2022-09-23T13:34:01.019Z,101686.72
2022-09-23T13:36:27.583Z,101687.44
2022-09-23T13:39:16.690Z,101682.63
2022-09-23T13:41:44.521Z,101689.81
2022-09-23T13:44:19.749Z,101679.59
2022-09-23T13:46:52.081Z,101675.34
2022-09-23T13:49:21.704Z,101678.59
2022-09-23T13:51:48.394Z,101684.56
2022-09-23T13:54:36.655Z,101683.56
2022-09-23T13:57:03.798Z,101680.66
2022-09-23T13:59:37.115Z,101682.88
2022-09-23T14:02:10.747Z,101690.72
2022-09-23T14:04:37.295Z,101687.47
2022-09-23T14:07:04.478Z,101687.81
2022-09-23T14:09:32.036Z,101679.13
2022-09-23T14:12:00.198Z,101678.25
2022-09-23T14:14:28.132Z,101685.94
2022-09-23T14:16:56.056Z,101684.59
2022-09-23T14:19:23.948Z,101692.25
2022-09-23T14:21:53.018Z,101694.59
2022-09-23T14:24:23.126Z,101685.75
2022-09-23T14:26:56.718Z,101685.06
2022-09-23T14:29:32.075Z,101673.78
2022-09-23T14:32:01.901Z,101676.72
2022-09-23T14:34:49.850Z,101660.69
2022-09-23T14:37:51.405Z,101660.84
2022-09-23T14:40:22.394Z,101647.59
2022-09-23T14:42:52.563Z,101642.97
2022-09-23T14:45:21.951Z,101634.66
2022-09-23T14:47:51.411Z,101640.78
2022-09-23T14:50:47.313Z,101642.66
2022-09-23T14:53:22.846Z,101640.94
2022-09-23T14:55:57.451Z,101644.69
2022-09-23T14:58:28.590Z,101645.88
2022-09-23T15:01:00.765Z,101646.22
2022-09-23T15:03:28.587Z,101642.81
2022-09-23T15:06:08.371Z,101643.13
2022-09-23T15:08:35.525Z,101635.31
2022-09-23T15:11:08.183Z,101628.16
2022-09-23T15:13:39.373Z,101619.31
2022-09-23T15:16:06.291Z,101622.03
2022-09-23T15:18:35.452Z,101611.16
2022-09-23T15:21:15.196Z,101614.53
2022-09-23T15:23:41.682Z,101603.81
2022-09-23T15:26:16.877Z,101607.22
2022-09-23T15:28:44.208Z,101611.66
2022-09-23T15:31:15.830Z,101600.75
2022-09-23T15:33:44.158Z,101607.72
2022-09-23T15:36:21.656Z,101606.72
2022-09-23T15:38:48.817Z,101608.41
2022-09-23T15:41:17.273Z,101609.44
2022-09-23T15:43:44.116Z,101618.97
2022-09-23T15:46:25.522Z,101616.25
2022-09-23T15:48:59.078Z,101612.84
2022-09-23T15:51:26.774Z,101604.81
2022-09-23T15:53:55.151Z,101618.63
2022-09-23T15:56:24.855Z,101613.19
2022-09-23T15:58:51.413Z,101600.75
2022-09-23T16:01:26.288Z,101605.34
2022-09-23T16:03:52.817Z,101607.22
2022-09-23T16:06:20.318Z,101608.41
2022-09-23T16:08:47.295Z,101603.13
2022-09-23T16:11:21.870Z,101607.03
2022-09-23T16:13:48.484Z,101602.75
2022-09-23T16:16:15.086Z,101604.81
2022-09-23T16:18:43.813Z,101598.66
2022-09-23T16:21:15.004Z,101603.47
2022-09-23T16:23:43.529Z,101602.59
2022-09-23T16:26:22.014Z,101597.50
2022-09-23T16:28:50.319Z,101595.78
2022-09-23T16:31:17.367Z,101588.66
2022-09-23T16:33:47.906Z,101591.19
2022-09-23T16:36:22.309Z,101593.25
2022-09-23T16:38:48.908Z,101587.59
2022-09-23T16:41:15.471Z,101592.06
2022-09-23T16:43:41.940Z,101577.59
2022-09-23T16:46:12.319Z,101573.16
2022-09-23T16:48:40.741Z,101577.75
2022-09-23T16:51:31.632Z,101582.16
2022-09-23T16:53:59.615Z,101584.19
2022-09-23T16:56:29.064Z,101583.34
2022-09-23T16:58:56.514Z,101578.06
2022-09-23T17:01:43.782Z,101586.59
2022-09-23T17:04:10.700Z,101585.91
2022-09-23T17:06:48.292Z,101595.94
2022-09-23T17:09:14.817Z,101593.38
2022-09-23T17:11:43.922Z,101590.66
2022-09-23T17:14:10.492Z,101590.81
2022-09-23T17:16:37.074Z,101592.69
2022-09-23T17:19:08.158Z,101591.84
2022-09-23T17:24:56.168Z,101597.44
2022-09-23T17:27:24.882Z,101588.44
2022-09-23T17:29:51.348Z,101586.56
2022-09-23T17:32:18.087Z,101589.28
2022-09-23T17:34:44.835Z,101596.09
2022-09-23T17:37:11.310Z,101596.78
2022-09-23T17:39:38.277Z,101600.50
2022-09-23T17:42:05.077Z,101597.09
2022-09-23T17:44:40.578Z,101597.28
2022-09-23T17:47:07.036Z,101600.16
2022-09-23T17:49:35.244Z,101590.28
2022-09-23T17:52:05.304Z,101597.59
2022-09-23T17:54:32.604Z,101601.34
2022-09-23T17:56:59.893Z,101602.22
2022-09-23T17:59:26.856Z,101595.91
2022-09-23T18:01:54.124Z,101601.16
2022-09-23T18:04:21.165Z,101607.66
2022-09-23T18:06:47.812Z,101598.44
2022-09-23T18:09:14.349Z,101599.47
2022-09-23T18:11:43.364Z,101603.88
2022-09-23T18:14:13.649Z,101604.94
2022-09-23T18:16:41.904Z,101616.66
2022-09-23T18:19:11.460Z,101612.25
2022-09-23T18:21:40.803Z,101606.81
2022-09-23T18:27:02.264Z,101598.75
2022-09-23T18:29:29.509Z,101601.47
2022-09-23T18:31:58.409Z,101605.41
2022-09-23T18:34:26.363Z,101600.13
2022-09-23T18:36:56.212Z,101600.13
2022-09-23T18:39:22.821Z,101600.97
2022-09-23T18:41:50.349Z,101599.09
2022-09-23T18:44:17.408Z,101601.63
2022-09-23T18:46:46.188Z,101598.75
2022-09-23T18:49:32.567Z,101605.25
2022-09-23T18:52:00.524Z,101605.25
2022-09-23T18:54:28.670Z,101600.13
2022-09-23T18:56:56.004Z,101598.41
2022-09-23T18:59:26.793Z,101603.88
2022-09-23T19:01:56.294Z,101608.44
2022-09-23T19:04:24.920Z,101605.91
2022-09-23T19:06:51.937Z,101615.75
2022-09-23T19:09:19.352Z,101607.59
2022-09-23T19:11:47.043Z,101613.03
2022-09-23T19:14:15.591Z,101618.47
2022-09-23T19:16:45.156Z,101613.03
2022-09-23T19:19:12.782Z,101614.06
2022-09-23T19:21:40.204Z,101602.31
2022-09-23T19:24:12.186Z,101608.63
2022-09-23T19:26:40.367Z,101607.59
2022-09-23T19:29:13.249Z,101609.47
2022-09-23T19:31:40.575Z,101602.50
2022-09-23T19:34:18.759Z,101605.38
2022-09-23T19:36:48.983Z,101604.69
2022-09-23T19:39:20.583Z,101606.22
2022-09-23T19:41:47.566Z,101602.81
2022-09-23T19:44:16.794Z,101602.81
2022-09-23T19:46:45.712Z,101600.25
2022-09-23T19:49:13.919Z,101606.56
2022-09-23T19:51:40.892Z,101602.97
2022-09-23T19:54:10.731Z,101604.00
2022-09-23T19:56:38.784Z,101615.72
2022-09-23T19:59:09.639Z,101615.56
2022-09-23T20:01:36.414Z,101600.25
2022-09-23T20:04:05.249Z,101603.84
2022-09-23T20:06:35.248Z,101603.84
2022-09-23T20:09:02.200Z,101598.41
2022-09-23T20:11:31.728Z,101604.69
2022-09-23T20:14:09.513Z,101595.69
2022-09-23T20:16:37.180Z,101597.50
2022-09-23T20:19:07.153Z,101601.13
2022-09-23T20:21:34.324Z,101595.81
2022-09-23T20:24:04.417Z,101597.72
2022-09-23T20:26:50.689Z,101599.41
2022-09-23T20:29:19.412Z,101594.97
2022-09-23T20:31:47.527Z,101597.72
2022-09-23T20:34:16.565Z,101592.25
2022-09-23T20:36:44.229Z,101603.16
2022-09-23T20:39:12.429Z,101596.81
2022-09-23T20:41:39.854Z,101607.72
2022-09-23T20:44:12.236Z,101597.72
2022-09-23T20:46:48.181Z,101610.28
2022-09-23T20:49:18.745Z,101608.59
2022-09-23T20:51:47.670Z,101599.41
2022-09-23T20:54:14.249Z,101601.44
2022-09-23T20:56:40.757Z,101595.97
2022-09-23T20:59:08.410Z,101601.44
2022-09-23T21:01:37.765Z,101602.28
2022-09-23T21:04:06.226Z,101601.44
2022-09-23T21:06:35.506Z,101601.28
2022-09-23T21:09:02.185Z,101594.28
2022-09-23T21:11:29.261Z,101594.28
2022-09-23T21:13:56.531Z,101595.47
2022-09-23T21:16:23.999Z,101600.94
2022-09-23T21:18:51.600Z,101600.03
2022-09-23T21:21:19.653Z,101601.78
2022-09-23T21:23:46.728Z,101604.50
2022-09-23T21:26:18.129Z,101600.03
2022-09-23T21:28:50.071Z,101600.03
2022-09-23T21:31:25.994Z,101597.50
2022-09-23T21:33:57.008Z,101598.38
2022-09-23T21:36:24.586Z,101590.19
2022-09-23T21:38:52.014Z,101597.66
2022-09-23T21:41:19.334Z,101605.16
2022-09-23T21:43:46.299Z,101599.84
2022-09-23T21:46:14.614Z,101596.13
2022-09-23T21:48:44.390Z,101602.41
2022-09-23T21:51:14.287Z,101592.38
2022-09-23T21:53:42.006Z,101600.53
2022-09-23T21:56:09.664Z,101596.97
2022-09-23T21:58:38.594Z,101604.13
2022-09-23T22:01:14.162Z,101600.41
2022-09-23T22:03:41.110Z,101601.59
2022-09-23T22:06:10.613Z,101600.41
2022-09-23T22:08:39.222Z,101603.28
2022-09-23T22:11:33.583Z,101605.84
2022-09-23T22:14:03.062Z,101601.25
2022-09-23T22:16:30.281Z,101596.81
2022-09-23T22:18:58.480Z,101600.41
2022-09-23T22:21:26.679Z,101603.28
2022-09-23T22:23:57.627Z,101598.66
2022-09-23T22:26:24.939Z,101600.00
2022-09-23T22:29:09.957Z,101603.75
2022-09-23T22:31:54.837Z,101599.50
2022-09-23T22:34:48.016Z,101602.03
2022-09-23T22:37:10.507Z,101603.06
2022-09-23T22:39:37.047Z,101592.69
2022-09-23T22:42:05.308Z,101599.63
2022-09-23T22:44:32.115Z,101584.81
2022-09-23T22:46:58.971Z,101589.91
2022-09-23T22:49:25.482Z,101590.19
2022-09-23T22:51:53.580Z,101584.41
2022-09-23T22:54:22.202Z,101579.63
2022-09-23T22:56:48.689Z,101578.38
2022-09-23T22:59:15.166Z,101582.13
2022-09-23T23:01:42.639Z,101584.16
2022-09-23T23:04:11.208Z,101576.16
2022-09-23T23:06:37.958Z,101578.19
2022-09-23T23:09:09.449Z,101590.25
2022-09-23T23:11:36.117Z,101588.66
2022-09-23T23:14:03.157Z,101589.66
2022-09-23T23:16:35.494Z,101577.25
2022-09-23T23:19:04.598Z,101573.50
2022-09-23T23:21:31.208Z,101577.84
2022-09-23T23:23:57.837Z,101565.28
2022-09-23T23:26:29.934Z,101566.97
2022-09-23T23:28:56.996Z,101564.94
2022-09-23T23:31:25.458Z,101562.09
2022-09-23T23:33:52.168Z,101558.81
2022-09-23T23:36:20.069Z,101557.28
2022-09-23T23:38:47.632Z,101552.84
2022-09-23T23:41:16.468Z,101555.56
2022-09-23T23:43:46.040Z,101550.13
2022-09-23T23:46:13.786Z,101549.13
2022-09-23T23:48:41.824Z,101541.81
2022-09-23T23:51:11.077Z,101536.41
2022-09-23T23:53:39.881Z,101540.13
2022-09-23T23:56:15.017Z,101533.31
2022-09-23T23:58:41.698Z,101531.59
